Main page
METAR-TAF:

METAR-TAF

Airports :

Pécs-Pogány International Airport

Pécs, Hungary

latitude: 46-06N, longitude: 018-14E, elevation: 201 m

Current weather observation

The report was made 33 minutes ago, at 16:15 UTC
Wind 13 kt from the North
Temperature 7°C
Humidity 39%
Pressure 1026 hPa
Visibility 10 km or more
Few clouds at a height of 4600 ft

METAR: LHPP 211615Z 35013KT 9999 FEW046 07/M06 Q1026

Time: 17:48 (16:48 UTC)

Forecast

The report was made 2 hours and 33 minutes ago, at 14:15 UTC
Forecast valid from 21 at 15 UTC to 21 at 24 UTC
Wind 18 kt from the North with gusts up to 28 kt
Visibility 10 km or more
no clouds below 1500 m and no cumulonimbus
Becoming
from 21 at 18 UTC to 21 at 21 UTC
Wind 10 kt from the North/Northwest

TAF: LHPP 211415Z 2115/2124 35018G28KT CAVOK BECMG 2118/2121 33010KT

Weather observations and forecasts of more than 4000 airports (METAR and TAF reports).

The available stations are represented by yellow and red dots on the map.

Hover mouse over dot to see the name of the station.

Then click to see weather observations and forecasts.

To change the map : click on the green buttons with a black cross to zoom in, on the green button with a dash to zoom out, or on the green arrows for adjacent maps.


METAR-TAF: